Time;durP1;ratioP1;P1;durP2;ratioP2;P2;SDS_P1;SDS_P2;PMS_P1;PMS_P2;Temp;Humidity;BMP_temperature;BMP_pressure;BME280_temperature;BME280_humidity;BME280_pressure;Samples;Min_cycle;Max_cycle;Signal;HPM_P1;HPM_P2
2023/12/23 00:00:26;;;;;;;;;;;;;;;2.89;76.37;97315.28;4512821;31;33938;-91
2023/12/23 00:02:54;;;;;;;;;;;;;;;3.25;74.96;97302.03;4500432;31;32260;-92
2023/12/23 00:05:21;;;;;;;;;;;;;;;3.53;74.44;97310.06;4512746;31;34060;-93
2023/12/23 00:07:49;;;;;;;;;;;;;;;3.49;74.69;97313.44;4513699;31;33385;-93
2023/12/23 00:10:17;;;;;;;;;;;;;;;3.63;73.70;97316.97;4496957;31;33201;-92
2023/12/23 00:12:51;;;;;;;;;;;;;;;3.70;73.54;97318.75;4496916;31;33105;-93
2023/12/23 00:15:19;;;;;;;;;;;;;;;3.16;75.50;97314.75;4510115;31;34537;-93
2023/12/23 00:17:47;;;;;;;;;;;;;;;3.50;74.48;97304.91;4483934;31;33548;-92
2023/12/23 00:20:16;;;;;;;;;;;;;;;3.72;73.67;97299.16;4496884;31;32942;-91
2023/12/23 00:22:44;;;;;;;;;;;;;;;3.54;73.67;97286.16;4496904;31;32156;-93
2023/12/23 00:25:12;;;;;;;;;;;;;;;3.45;74.66;97273.22;4496537;31;33380;-91
2023/12/23 00:27:43;;;;;;;;;;;;;;;3.84;73.23;97271.06;4509620;31;34155;-91
2023/12/23 00:30:13;;;;;;;;;;;;;;;3.74;73.59;97294.87;4521038;31;34222;-92
2023/12/23 00:32:40;;;;;;;;;;;;;;;4.14;71.82;97297.81;4512528;31;34468;-90
2023/12/23 00:35:08;;;;;;;;;;;;;;;3.71;73.12;97279.47;4496557;31;33100;-91
2023/12/23 00:37:35;;;;;;;;;;;;;;;3.84;72.65;97277.91;4497048;31;34349;-90
2023/12/23 00:40:03;;;;;;;;;;;;;;;3.90;72.48;97268.56;4484643;31;33235;-92
2023/12/23 00:42:31;;;;;;;;;;;;;;;3.83;72.71;97246.28;4499156;31;32043;-91
2023/12/23 00:44:58;;;;;;;;;;;;;;;3.89;72.58;97237.75;4525532;31;33607;-91
2023/12/23 00:47:26;;;;;;;;;;;;;;;3.82;72.94;97254.78;4512604;31;35101;-90
2023/12/23 00:49:58;;;;;;;;;;;;;;;3.36;74.36;97267.16;4499326;31;33749;-92
2023/12/23 00:52:25;;;;;;;;;;;;;;;3.87;72.75;97273.66;4483899;31;32272;-92
2023/12/23 00:54:53;;;;;;;;;;;;;;;3.98;72.68;97262.59;4484519;31;34145;-91
2023/12/23 00:57:40;;;;;;;;;;;;;;;3.93;72.84;97264.28;4488348;31;33542;-91
2023/12/23 01:00:08;;;;;;;;;;;;;;;4.06;72.03;97268.69;4481640;31;33384;-91
2023/12/23 01:02:37;;;;;;;;;;;;;;;3.98;71.98;97262.59;4480051;31;32493;-91
2023/12/23 01:05:24;;;;;;;;;;;;;;;4.03;71.59;97258.41;4504384;31;33192;-92
2023/12/23 01:07:53;;;;;;;;;;;;;;;3.98;72.05;97262.59;4516483;31;35422;-94
2023/12/23 01:10:24;;;;;;;;;;;;;;;4.41;70.38;97276.62;4506939;31;34327;-92
2023/12/23 01:12:57;;;;;;;;;;;;;;;4.46;70.17;97303.16;4489652;31;32220;-91
2023/12/23 01:15:24;;;;;;;;;;;;;;;4.19;71.06;97326.91;4502201;31;33541;-91
2023/12/23 01:17:52;;;;;;;;;;;;;;;4.29;70.82;97322.72;4502063;31;33562;-91
2023/12/23 01:20:20;;;;;;;;;;;;;;;4.38;70.27;97330.47;4490120;31;33853;-90
2023/12/23 01:22:47;;;;;;;;;;;;;;;4.41;70.10;97327.94;4475173;31;32609;-90
2023/12/23 01:25:15;;;;;;;;;;;;;;;4.11;70.87;97305.47;4498518;31;34871;-93
2023/12/23 01:28:06;;;;;;;;;;;;;;;3.78;72.27;97326.53;4478301;31;33962;-92
2023/12/23 01:30:53;;;;;;;;;;;;;;;4.19;70.94;97334.59;4478034;31;33773;-91
2023/12/23 01:33:21;;;;;;;;;;;;;;;3.89;71.92;97337.75;4486614;31;33791;-93
2023/12/23 01:35:57;;;;;;;;;;;;;;;4.24;70.87;97338.03;4498861;31;33495;-92
2023/12/23 01:38:25;;;;;;;;;;;;;;;4.05;71.96;97343.88;4467598;31;33676;-91
2023/12/23 01:40:52;;;;;;;;;;;;;;;4.04;71.54;97326.78;4499255;31;33617;-91
2023/12/23 01:43:20;;;;;;;;;;;;;;;4.14;71.27;97342.25;4495901;31;33087;-90
2023/12/23 01:45:47;;;;;;;;;;;;;;;3.69;72.70;97352.06;4515072;31;32437;-92
2023/12/23 01:48:15;;;;;;;;;;;;;;;4.10;71.58;97360.19;4488247;31;34405;-91
2023/12/23 01:50:43;;;;;;;;;;;;;;;3.62;72.61;97346.88;4486670;31;33146;-90
2023/12/23 01:53:11;;;;;;;;;;;;;;;3.68;72.80;97330.72;4492595;31;33404;-90
2023/12/23 01:55:38;;;;;;;;;;;;;;;3.77;72.77;97323.09;4498655;31;33466;-91
2023/12/23 01:58:05;;;;;;;;;;;;;;;3.88;72.37;97316.38;4485487;31;33681;-91
2023/12/23 02:00:33;;;;;;;;;;;;;;;3.74;72.87;97312.81;4487641;31;34089;-91
2023/12/23 02:03:01;;;;;;;;;;;;;;;4.31;70.75;97333.84;4498247;31;33917;-92
2023/12/23 02:05:28;;;;;;;;;;;;;;;4.42;69.75;97339.91;4497955;31;33927;-91
2023/12/23 02:07:56;;;;;;;;;;;;;;;3.59;72.80;97320.34;4495568;31;33183;-89
2023/12/23 02:10:24;;;;;;;;;;;;;;;3.79;72.71;97346.19;4472411;31;33765;-90
2023/12/23 02:12:56;;;;;;;;;;;;;;;3.84;72.50;97360.78;4471598;31;32070;-92
2023/12/23 02:15:38;;;;;;;;;;;;;;;3.55;73.06;97354.47;4477848;31;33216;-90
2023/12/23 02:18:06;;;;;;;;;;;;;;;3.49;74.59;97359.53;4478288;31;34385;-90
2023/12/23 02:20:33;;;;;;;;;;;;;;;3.41;74.35;97387.63;4485496;31;35655;-90
2023/12/23 02:23:01;;;;;;;;;;;;;;;3.78;72.71;97403.41;4486531;31;33397;-91
2023/12/23 02:25:30;;;;;;;;;;;;;;;3.47;73.89;97412.44;4499949;31;33326;-91
2023/12/23 02:28:03;;;;;;;;;;;;;;;3.17;75.49;97408.66;4493310;31;33240;-91
2023/12/23 02:30:31;;;;;;;;;;;;;;;3.11;76.52;97404.31;4486729;31;32701;-93
2023/12/23 02:32:59;;;;;;;;;;;;;;;3.17;76.26;97403.53;4486879;31;32763;-92
2023/12/23 02:35:26;;;;;;;;;;;;;;;3.12;75.47;97421.38;4487327;31;33298;-92
2023/12/23 02:37:55;;;;;;;;;;;;;;;2.98;76.78;97422.03;4499315;31;34071;-93
2023/12/23 02:40:23;;;;;;;;;;;;;;;3.20;76.00;97418.94;4499180;31;34623;-90
2023/12/23 02:42:50;;;;;;;;;;;;;;;2.72;77.40;97413.97;4498126;31;33985;-91
2023/12/23 02:45:19;;;;;;;;;;;;;;;2.85;77.18;97400.53;4509011;31;34860;-93
2023/12/23 02:47:48;;;;;;;;;;;;;;;3.13;76.24;97387.25;4485529;31;34049;-91
2023/12/23 02:50:16;;;;;;;;;;;;;;;3.34;75.73;97396.09;4503325;31;34472;-91
2023/12/23 02:52:44;;;;;;;;;;;;;;;3.32;75.24;97408.84;4501452;31;32158;-88
2023/12/23 02:55:15;;;;;;;;;;;;;;;3.08;76.60;97431.56;4501714;31;32887;-90
2023/12/23 02:57:42;;;;;;;;;;;;;;;3.27;75.66;97430.13;4499664;31;33538;-90
2023/12/23 03:00:10;;;;;;;;;;;;;;;3.48;74.74;97429.53;4500929;31;33967;-91
2023/12/23 03:02:37;;;;;;;;;;;;;;;3.34;75.14;97432.78;4491213;31;33200;-90
2023/12/23 03:05:05;;;;;;;;;;;;;;;3.31;75.00;97437.00;4504893;31;33987;-89
2023/12/23 03:07:33;;;;;;;;;;;;;;;3.54;74.42;97429.62;4501551;31;32911;-90
2023/12/23 03:10:01;;;;;;;;;;;;;;;3.28;75.50;97429.28;4501578;31;34095;-92
2023/12/23 03:12:28;;;;;;;;;;;;;;;3.09;76.72;97448.66;4516057;31;33261;-90
2023/12/23 03:14:56;;;;;;;;;;;;;;;2.77;77.26;97455.84;4516003;31;34867;-90
2023/12/23 03:17:25;;;;;;;;;;;;;;;2.75;77.45;97440.47;4515073;31;34418;-93
2023/12/23 03:19:56;;;;;;;;;;;;;;;3.21;75.70;97436.00;4514494;31;33660;-89
2023/12/23 03:22:24;;;;;;;;;;;;;;;2.55;78.49;97439.28;4478697;31;31840;-91
2023/12/23 03:24:51;;;;;;;;;;;;;;;2.67;78.76;97442.03;4498157;31;34505;-90
2023/12/23 03:27:19;;;;;;;;;;;;;;;2.90;77.74;97460.31;4485370;31;34248;-90
2023/12/23 03:29:46;;;;;;;;;;;;;;;2.31;79.48;97470.41;4485327;31;33134;-90
2023/12/23 03:32:14;;;;;;;;;;;;;;;2.43;79.70;97475.75;4506574;31;31882;-88
2023/12/23 03:34:42;;;;;;;;;;;;;;;2.42;79.66;97497.91;4515226;31;34642;-91
2023/12/23 03:37:09;;;;;;;;;;;;;;;2.85;77.38;97514.00;4501396;31;33604;-92
2023/12/23 03:39:37;;;;;;;;;;;;;;;2.40;79.16;97517.47;4514343;31;33895;-91
2023/12/23 03:42:04;;;;;;;;;;;;;;;2.18;80.67;97523.00;4510144;31;33235;-90
2023/12/23 03:44:48;;;;;;;;;;;;;;;1.97;81.24;97517.47;4498502;31;32880;-91
2023/12/23 03:47:16;;;;;;;;;;;;;;;2.20;81.86;97500.91;4508226;31;33791;-91
2023/12/23 03:49:43;;;;;;;;;;;;;;;1.89;82.30;97505.41;4500381;31;33090;-90
2023/12/23 03:52:10;;;;;;;;;;;;;;;1.77;83.08;97489.81;4515460;31;32524;-93
2023/12/23 03:54:38;;;;;;;;;;;;;;;1.68;83.96;97482.00;4500545;31;33999;-92
2023/12/23 03:57:05;;;;;;;;;;;;;;;2.20;81.98;97470.22;4498786;31;32976;-94
2023/12/23 03:59:33;;;;;;;;;;;;;;;2.06;82.03;97477.63;4498965;31;32800;-90
2023/12/23 04:02:00;;;;;;;;;;;;;;;2.44;80.90;97480.88;4488209;31;32974;-89
2023/12/23 04:04:28;;;;;;;;;;;;;;;2.71;79.15;97477.06;4513100;31;33691;-93
2023/12/23 04:06:55;;;;;;;;;;;;;;;2.97;77.58;97472.38;4515258;31;33988;-90
2023/12/23 04:09:24;;;;;;;;;;;;;;;3.19;76.66;97478.69;4515017;31;34180;-90
2023/12/23 04:11:52;;;;;;;;;;;;;;;2.87;78.15;97466.22;4515403;31;33267;-90
2023/12/23 04:14:19;;;;;;;;;;;;;;;3.13;76.57;97463.22;4512736;31;33426;-90
2023/12/23 04:16:47;;;;;;;;;;;;;;;2.67;77.82;97448.00;4498218;31;34296;-90
2023/12/23 04:19:15;;;;;;;;;;;;;;;2.75;77.91;97449.84;4505009;31;33677;-88
2023/12/23 04:22:02;;;;;;;;;;;;;;;3.29;76.36;97454.03;4514105;31;32107;-89
2023/12/23 04:24:30;;;;;;;;;;;;;;;2.91;76.69;97451.78;4514036;31;33876;-89
2023/12/23 04:26:57;;;;;;;;;;;;;;;3.24;76.04;97466.78;4500753;31;33389;-90
2023/12/23 04:29:24;;;;;;;;;;;;;;;3.06;76.58;97461.41;4494606;31;33539;-94
2023/12/23 04:31:53;;;;;;;;;;;;;;;2.60;78.96;97473.47;4498179;31;32099;-92
2023/12/23 04:34:21;;;;;;;;;;;;;;;2.36;79.73;97477.34;4497994;31;33356;-89
2023/12/23 04:36:49;;;;;;;;;;;;;;;2.18;81.48;97480.41;4486928;31;33374;-93
2023/12/23 04:39:16;;;;;;;;;;;;;;;2.35;80.37;97465.41;4502559;31;33983;-90
2023/12/23 04:41:48;;;;;;;;;;;;;;;2.22;80.55;97458.31;4488028;31;32036;-91
2023/12/23 04:44:18;;;;;;;;;;;;;;;1.90;81.70;97468.81;4491207;31;34115;-93
2023/12/23 04:46:47;;;;;;;;;;;;;;;2.28;80.72;97461.00;4490652;31;33641;-92
2023/12/23 04:49:14;;;;;;;;;;;;;;;2.15;81.59;97474.38;4516275;31;33442;-92
2023/12/23 04:51:45;;;;;;;;;;;;;;;2.38;81.10;97470.53;4511892;31;32965;-89
2023/12/23 04:54:13;;;;;;;;;;;;;;;2.46;80.37;97487.72;4487453;31;33198;-92
2023/12/23 04:56:41;;;;;;;;;;;;;;;2.36;80.31;97486.72;4501292;31;33514;-91
2023/12/23 04:59:08;;;;;;;;;;;;;;;2.23;81.86;97493.28;4503146;31;33674;-91
2023/12/23 05:01:36;;;;;;;;;;;;;;;2.49;80.08;97513.34;4489880;31;32348;-90
2023/12/23 05:04:04;;;;;;;;;;;;;;;1.95;81.54;97522.56;4503579;31;32936;-93
2023/12/23 05:06:31;;;;;;;;;;;;;;;1.84;82.75;97522.34;4488139;31;33379;-89
2023/12/23 05:08:59;;;;;;;;;;;;;;;2.61;79.73;97517.00;4490062;31;33212;-91
2023/12/23 05:11:26;;;;;;;;;;;;;;;2.37;80.81;97535.31;4490439;31;32066;-91
2023/12/23 05:13:54;;;;;;;;;;;;;;;1.51;84.11;97550.56;4490468;31;32951;-91
2023/12/23 05:16:22;;;;;;;;;;;;;;;1.87;83.67;97560.75;4485495;31;33433;-89
2023/12/23 05:18:49;;;;;;;;;;;;;;;1.58;83.93;97574.56;4475236;31;33898;-93
2023/12/23 05:21:21;;;;;;;;;;;;;;;1.43;85.32;97577.63;4475263;31;32962;-92
2023/12/23 05:23:49;;;;;;;;;;;;;;;1.84;83.89;97586.22;4485930;31;32793;-92
2023/12/23 05:26:18;;;;;;;;;;;;;;;1.80;84.27;97587.00;4503326;31;33553;-93
2023/12/23 05:29:03;;;;;;;;;;;;;;;1.88;83.10;97598.22;4505265;31;34797;-92
2023/12/23 05:31:34;;;;;;;;;;;;;;;2.29;81.49;97603.34;4490504;31;33640;-93
2023/12/23 05:34:01;;;;;;;;;;;;;;;1.70;83.40;97610.59;4488873;31;33336;-93
2023/12/23 05:36:49;;;;;;;;;;;;;;;2.14;81.74;97608.16;4493044;31;33952;-94
2023/12/23 05:39:19;;;;;;;;;;;;;;;1.83;82.53;97617.72;4503235;31;32460;-94
2023/12/23 05:41:46;;;;;;;;;;;;;;;1.93;82.22;97618.78;4476026;31;32445;-92
2023/12/23 05:44:14;;;;;;;;;;;;;;;1.83;81.46;97617.72;4486834;31;33934;-92
2023/12/23 05:46:43;;;;;;;;;;;;;;;1.62;83.24;97633.41;4487053;31;34183;-94
2023/12/23 05:49:10;;;;;;;;;;;;;;;1.92;82.12;97648.56;4486508;31;33258;-91
2023/12/23 05:51:40;;;;;;;;;;;;;;;1.80;82.65;97661.09;4488067;31;32154;-93
2023/12/23 05:54:27;;;;;;;;;;;;;;;1.95;81.57;97656.31;4489090;31;33066;-92
2023/12/23 05:56:55;;;;;;;;;;;;;;;1.69;82.02;97663.38;4500209;31;34879;-93
2023/12/23 05:59:23;;;;;;;;;;;;;;;1.71;81.52;97671.09;4499464;31;33669;-90
2023/12/23 06:01:52;;;;;;;;;;;;;;;1.55;82.50;97674.09;4512820;31;33273;-90
2023/12/23 06:04:20;;;;;;;;;;;;;;;1.77;81.30;97673.78;4514872;31;33682;-91
2023/12/23 06:06:47;;;;;;;;;;;;;;;1.52;82.79;97679.16;4514545;31;33974;-92
2023/12/23 06:09:15;;;;;;;;;;;;;;;1.89;81.98;97697.06;4487381;31;32548;-92
2023/12/23 06:11:43;;;;;;;;;;;;;;;1.77;81.87;97698.47;4476276;31;33224;-92
2023/12/23 06:14:10;;;;;;;;;;;;;;;1.90;82.11;97703.06;4485718;31;34060;-92
2023/12/23 06:16:41;;;;;;;;;;;;;;;2.14;81.59;97716.38;4485743;31;34049;-91
2023/12/23 06:19:08;;;;;;;;;;;;;;;2.09;81.24;97700.09;4473334;31;33874;-92
2023/12/23 06:21:45;;;;;;;;;;;;;;;2.13;81.06;97694.22;4483514;31;33525;-92
2023/12/23 06:24:15;;;;;;;;;;;;;;;2.35;80.38;97708.34;4491626;31;34099;-92
2023/12/23 06:26:43;;;;;;;;;;;;;;;2.21;81.19;97737.84;4486159;31;33236;-92
2023/12/23 06:29:12;;;;;;;;;;;;;;;2.16;82.43;97719.84;4486797;31;34110;-92
2023/12/23 06:31:48;;;;;;;;;;;;;;;2.25;81.41;97716.63;4510845;31;33203;-94
2023/12/23 06:34:16;;;;;;;;;;;;;;;2.31;81.53;97737.22;4489361;31;34218;-89
2023/12/23 06:36:44;;;;;;;;;;;;;;;2.13;81.12;97735.13;4485300;31;33594;-91
2023/12/23 06:39:11;;;;;;;;;;;;;;;1.90;83.62;97714.13;4486229;31;34341;-91
2023/12/23 06:41:39;;;;;;;;;;;;;;;2.33;81.88;97720.22;4489512;31;32579;-92
2023/12/23 06:44:06;;;;;;;;;;;;;;;2.22;82.03;97728.47;4485467;31;32978;-93
2023/12/23 06:46:35;;;;;;;;;;;;;;;2.17;81.52;97731.81;4491321;31;34746;-92
2023/12/23 06:49:03;;;;;;;;;;;;;;;2.48;79.95;97741.84;4488140;31;33299;-90
2023/12/23 06:51:31;;;;;;;;;;;;;;;2.09;81.34;97747.81;4489118;31;33571;-92
2023/12/23 06:53:59;;;;;;;;;;;;;;;2.08;82.26;97741.78;4488836;31;33643;-91
2023/12/23 06:56:26;;;;;;;;;;;;;;;2.15;82.01;97747.91;4484097;31;33274;-91
2023/12/23 06:58:55;;;;;;;;;;;;;;;2.04;82.90;97769.81;4475432;31;33597;-91
2023/12/23 07:01:22;;;;;;;;;;;;;;;2.02;83.15;97772.34;4475793;31;33216;-91
2023/12/23 07:03:50;;;;;;;;;;;;;;;1.85;83.13;97753.19;4485635;31;34420;-93
2023/12/23 07:06:19;;;;;;;;;;;;;;;1.81;83.10;97744.56;4485653;31;33878;-93
2023/12/23 07:08:47;;;;;;;;;;;;;;;2.10;82.77;97744.41;4473324;31;33874;-92
2023/12/23 07:11:15;;;;;;;;;;;;;;;2.18;81.01;97722.44;4485923;31;34084;-94
2023/12/23 07:13:42;;;;;;;;;;;;;;;2.57;80.11;97724.97;4500133;31;34022;-93
2023/12/23 07:16:10;;;;;;;;;;;;;;;1.65;83.07;97734.81;4499907;31;34443;-93
2023/12/23 07:18:37;;;;;;;;;;;;;;;2.37;80.10;97757.81;4516724;31;34611;-93
2023/12/23 07:21:05;;;;;;;;;;;;;;;1.98;81.02;97764.56;4488235;31;33570;-91
2023/12/23 07:23:33;;;;;;;;;;;;;;;1.86;81.13;97760.03;4496979;31;34133;-92
2023/12/23 07:26:01;;;;;;;;;;;;;;;2.33;80.21;97786.69;4499099;31;33997;-91
2023/12/23 07:28:29;;;;;;;;;;;;;;;2.12;80.69;97793.88;4500780;31;33337;-92
2023/12/23 07:30:57;;;;;;;;;;;;;;;2.20;80.12;97810.28;4497588;31;33410;-93
2023/12/23 07:33:24;;;;;;;;;;;;;;;2.30;79.63;97819.88;4487875;31;32779;-93
2023/12/23 07:35:51;;;;;;;;;;;;;;;2.32;80.14;97812.25;4501349;31;33829;-92
2023/12/23 07:38:19;;;;;;;;;;;;;;;2.25;79.49;97816.34;4498678;31;32988;-93
2023/12/23 07:40:46;;;;;;;;;;;;;;;2.27;79.57;97829.16;4486059;31;32369;-92
2023/12/23 07:43:13;;;;;;;;;;;;;;;2.18;79.70;97830.69;4487271;31;33202;-93
2023/12/23 07:45:42;;;;;;;;;;;;;;;2.12;80.35;97824.53;4485331;31;34136;-94
2023/12/23 07:48:09;;;;;;;;;;;;;;;2.48;78.96;97828.81;4485450;31;34763;-92
2023/12/23 07:50:38;;;;;;;;;;;;;;;2.22;80.08;97826.50;4486344;31;33644;-92
2023/12/23 07:53:06;;;;;;;;;;;;;;;2.34;80.53;97841.28;4474498;31;33483;-92
2023/12/23 07:55:53;;;;;;;;;;;;;;;2.87;77.96;97839.91;4483379;31;34369;-93
2023/12/23 07:58:21;;;;;;;;;;;;;;;2.44;79.92;97850.91;4487387;31;32927;-92
2023/12/23 08:00:49;;;;;;;;;;;;;;;2.90;77.60;97854.50;4488779;31;32437;-93
2023/12/23 08:03:17;;;;;;;;;;;;;;;2.17;79.73;97866.44;4485066;31;33429;-91
2023/12/23 08:05:44;;;;;;;;;;;;;;;2.64;78.64;97871.81;4493596;31;34692;-89
2023/12/23 08:08:11;;;;;;;;;;;;;;;2.29;79.97;97894.88;4487894;31;34439;-91
2023/12/23 08:10:39;;;;;;;;;;;;;;;2.17;80.12;97899.69;4508318;31;33398;-95
2023/12/23 08:13:44;;;;;;;;;;;;;;;2.44;79.79;97905.47;4494942;31;34619;-95
2023/12/23 08:16:32;;;;;;;;;;;;;;;2.81;77.52;97911.47;4505378;31;35150;-95
2023/12/23 08:18:59;;;;;;;;;;;;;;;2.85;78.08;97926.06;4491372;31;32825;-94
2023/12/23 08:21:47;;;;;;;;;;;;;;;3.03;76.76;97920.50;4494008;31;31945;-91
2023/12/23 08:24:14;;;;;;;;;;;;;;;2.67;78.63;97931.59;4514416;31;32483;-88
2023/12/23 08:26:41;;;;;;;;;;;;;;;2.92;77.68;97930.50;4517470;31;35145;-93
2023/12/23 08:29:10;;;;;;;;;;;;;;;3.28;76.24;97934.69;4506718;31;33248;-96
2023/12/23 08:31:57;;;;;;;;;;;;;;;3.29;75.54;97936.41;4510036;31;34114;-96
2023/12/23 08:34:46;;;;;;;;;;;;;;;3.34;75.01;97955.34;4501337;31;33320;-94
2023/12/23 08:37:33;;;;;;;;;;;;;;;3.48;73.74;97949.63;4502624;31;33106;-96
2023/12/23 08:40:21;;;;;;;;;;;;;;;3.22;75.11;97954.19;4503102;31;32957;-91
2023/12/23 08:42:50;;;;;;;;;;;;;;;3.32;75.13;97964.66;4477944;31;33942;-94
2023/12/23 08:45:20;;;;;;;;;;;;;;;3.03;75.46;97958.03;4503691;31;34918;-88
2023/12/23 08:47:49;;;;;;;;;;;;;;;3.12;75.71;97959.09;4493579;31;34495;-92
2023/12/23 08:50:25;;;;;;;;;;;;;;;3.01;75.49;97963.12;4502062;31;33758;-95
2023/12/23 08:54:07;;;;;;;;;;;;;;;3.05;74.73;97969.19;4527379;31;33949;-94
2023/12/23 08:56:38;;;;;;;;;;;;;;;2.71;76.12;97991.41;4513857;31;33695;-89
2023/12/23 08:59:07;;;;;;;;;;;;;;;3.01;75.14;97992.97;4517322;31;34343;-90
2023/12/23 09:02:12;;;;;;;;;;;;;;;3.01;74.80;97998.97;4506286;31;34463;-92
2023/12/23 09:04:41;;;;;;;;;;;;;;;3.00;73.69;97993.81;4502767;31;32898;-90
2023/12/23 09:07:12;;;;;;;;;;;;;;;3.10;72.83;97991.47;4517231;31;33746;-90
2023/12/23 09:09:47;;;;;;;;;;;;;;;3.02;72.35;97995.56;4521152;31;34536;-90
2023/12/23 09:12:15;;;;;;;;;;;;;;;3.26;70.84;97992.72;4517946;31;35307;-90
2023/12/23 09:15:19;;;;;;;;;;;;;;;3.50;70.34;98000.09;4508318;31;34638;-90
2023/12/23 09:18:13;;;;;;;;;;;;;;;3.33;70.00;97994.59;4504641;31;35305;-89
2023/12/23 09:21:02;;;;;;;;;;;;;;;3.26;70.00;97986.72;4523948;31;34849;-96
2023/12/23 09:24:26;;;;;;;;;;;;;;;3.41;69.47;97998.19;4512957;31;34498;-95
2023/12/23 09:27:53;;;;;;;;;;;;;;;3.30;69.52;98002.22;4517961;31;33850;-93
2023/12/23 09:30:21;;;;;;;;;;;;;;;2.94;69.77;98007.31;4527527;31;34381;-92
2023/12/23 09:33:27;;;;;;;;;;;;;;;3.49;69.31;98000.06;4531204;31;34335;-96
2023/12/23 09:36:36;;;;;;;;;;;;;;;3.30;69.25;97998.78;4525422;31;35475;-89
2023/12/23 09:39:06;;;;;;;;;;;;;;;3.64;68.20;97991.00;4515046;31;34584;-93
2023/12/23 09:41:52;;;;;;;;;;;;;;;3.81;68.43;97987.91;4505811;31;34693;-93
2023/12/23 09:44:58;;;;;;;;;;;;;;;3.67;68.30;97974.78;4516427;31;33018;-90
2023/12/23 09:48:34;;;;;;;;;;;;;;;3.62;68.88;97974.72;4456671;26;37225;-89
2023/12/23 09:52:14;;;;;;;;;;;;;;;3.19;69.79;97975.50;4455644;32;33632;-90
2023/12/23 09:55:22;;;;;;;;;;;;;;;3.90;67.41;97983.84;4465798;32;33112;-89
2023/12/23 09:58:44;;;;;;;;;;;;;;;3.66;68.10;97988.47;4447983;32;34338;-90
2023/12/23 10:01:38;;;;;;;;;;;;;;;3.13;69.22;97998.38;4439094;32;34977;-89
2023/12/23 10:04:42;;;;;;;;;;;;;;;3.40;68.85;97996.44;4430853;32;32275;-92
2023/12/23 10:08:01;;;;;;;;;;;;;;;3.54;67.64;97998.44;4432900;32;34640;-90
2023/12/23 10:10:58;;;;;;;;;;;;;;;3.74;67.97;97994.59;4443971;32;35963;-91
2023/12/23 10:13:43;;;;;;;;;;;;;;;4.03;65.99;98002.03;4431508;32;34803;-91
2023/12/23 10:17:01;;;;;;;;;;;;;;;3.47;67.31;97992.31;4437995;32;34404;-90
2023/12/23 10:20:43;;;;;;;;;;;;;;;3.64;66.50;97993.56;4436207;32;33915;-90
2023/12/23 10:24:02;;;;;;;;;;;;;;;2.95;67.90;98005.63;4406237;32;32934;-93
2023/12/23 10:26:30;;;;;;;;;;;;;;;3.65;66.17;97997.00;4440161;32;35254;-91
2023/12/23 10:29:02;;;;;;;;;;;;;;;3.65;66.12;97994.41;4427371;32;32937;-91
2023/12/23 10:32:02;;;;;;;;;;;;;;;3.21;66.86;97973.81;4418754;32;34731;-89
2023/12/23 10:35:22;;;;;;;;;;;;;;;3.03;67.12;97988.75;4434640;32;35517;-90
2023/12/23 10:38:53;;;;;;;;;;;;;;;3.54;65.73;97990.75;4430274;32;35417;-91
2023/12/23 10:41:49;;;;;;;;;;;;;;;3.75;65.58;97993.78;4434439;32;34041;-90
2023/12/23 10:44:41;;;;;;;;;;;;;;;3.70;65.02;97990.25;4429377;32;35472;-89
2023/12/23 10:47:08;;;;;;;;;;;;;;;3.79;64.56;97990.47;4406141;32;35654;-90
2023/12/23 10:50:10;;;;;;;;;;;;;;;3.34;64.54;97990.34;4407883;32;33765;-91
2023/12/23 10:52:47;;;;;;;;;;;;;;;3.54;64.99;97988.19;4401810;32;32641;-91
2023/12/23 10:55:19;;;;;;;;;;;;;;;3.14;63.74;97987.31;4399594;32;34365;-91
2023/12/23 10:57:55;;;;;;;;;;;;;;;3.25;62.17;97990.13;4383955;32;33301;-90
2023/12/23 11:00:36;;;;;;;;;;;;;;;3.04;61.15;97976.00;4407320;32;33510;-91
2023/12/23 11:03:35;;;;;;;;;;;;;;;2.84;63.20;97978.09;4402595;32;33577;-91
2023/12/23 11:06:11;;;;;;;;;;;;;;;2.68;62.76;97963.19;4393442;32;33186;-91
2023/12/23 11:09:12;;;;;;;;;;;;;;;3.13;63.19;97957.41;4394203;32;35165;-90
2023/12/23 11:11:57;;;;;;;;;;;;;;;3.30;62.18;97953.53;4416883;32;34032;-90
2023/12/23 11:14:35;;;;;;;;;;;;;;;2.72;64.13;97952.19;4415025;32;33389;-91
2023/12/23 11:17:23;;;;;;;;;;;;;;;3.15;62.79;97942.97;4403674;32;34361;-90
2023/12/23 11:20:01;;;;;;;;;;;;;;;2.76;63.96;97941.19;4403007;32;35459;-90
2023/12/23 11:22:30;;;;;;;;;;;;;;;2.38;66.31;97928.31;4400408;32;33857;-92
2023/12/23 11:24:57;;;;;;;;;;;;;;;2.84;65.56;97936.25;4402593;32;32320;-95
2023/12/23 11:27:29;;;;;;;;;;;;;;;2.63;66.58;97931.50;4400537;32;33708;-96
2023/12/23 11:30:16;;;;;;;;;;;;;;;2.74;67.96;97932.62;4409316;32;33057;-96
2023/12/23 11:33:19;;;;;;;;;;;;;;;2.60;69.61;97928.87;4407070;32;35203;-96
2023/12/23 11:36:26;;;;;;;;;;;;;;;2.79;69.37;97917.38;4392961;32;32355;-96
2023/12/23 11:39:14;;;;;;;;;;;;;;;3.07;69.66;97913.72;4405764;32;33282;-96
2023/12/23 11:42:03;;;;;;;;;;;;;;;2.55;72.96;97907.44;4403657;32;35189;-96
2023/12/23 11:44:50;;;;;;;;;;;;;;;2.42;73.28;97899.47;4389268;32;33576;-96
2023/12/23 11:47:18;;;;;;;;;;;;;;;2.15;74.61;97886.84;4392231;32;33536;-96
2023/12/23 11:50:08;;;;;;;;;;;;;;;2.56;73.91;97889.56;4409546;32;33741;-95
2023/12/23 11:53:16;;;;;;;;;;;;;;;2.21;75.24;97881.03;4406979;32;33371;-96
2023/12/23 11:55:43;;;;;;;;;;;;;;;1.72;77.59;97887.44;4414443;32;32938;-96
2023/12/23 11:58:46;;;;;;;;;;;;;;;2.37;75.63;97887.38;4400597;32;32393;-96
2023/12/23 12:01:34;;;;;;;;;;;;;;;1.65;77.93;97875.31;4401863;32;33396;-96
2023/12/23 12:04:23;;;;;;;;;;;;;;;1.99;75.99;97860.88;4433836;32;35567;-96
2023/12/23 12:06:50;;;;;;;;;;;;;;;1.98;77.49;97856.59;4417350;32;34710;-96
2023/12/23 12:09:17;;;;;;;;;;;;;;;1.80;78.03;97856.97;4415219;32;32066;-95
2023/12/23 12:11:45;;;;;;;;;;;;;;;1.98;77.94;97871.94;4401623;32;33948;-96
2023/12/23 12:14:12;;;;;;;;;;;;;;;1.83;78.19;97842.59;4428619;32;34495;-96
2023/12/23 12:16:40;;;;;;;;;;;;;;;2.25;76.62;97820.59;4392795;32;33696;-93
2023/12/23 12:19:32;;;;;;;;;;;;;;;2.16;76.92;97834.03;4425441;32;31957;-96
2023/12/23 12:22:33;;;;;;;;;;;;;;;3.08;73.39;97828.44;4420821;32;33856;-96
2023/12/23 12:25:35;;;;;;;;;;;;;;;2.39;75.29;97804.75;4434434;32;34201;-96
2023/12/23 12:28:35;;;;;;;;;;;;;;;2.47;75.81;97806.63;4420090;32;34384;-96
2023/12/23 12:31:29;;;;;;;;;;;;;;;1.94;77.43;97817.31;4420326;32;32372;-93
2023/12/23 12:34:16;;;;;;;;;;;;;;;1.77;78.50;97841.56;4419865;32;32934;-91
2023/12/23 12:37:03;;;;;;;;;;;;;;;2.36;76.85;97844.75;4408553;32;33376;-96
2023/12/23 12:40:11;;;;;;;;;;;;;;;2.79;74.50;97846.56;4407864;32;34030;-95
2023/12/23 12:43:04;;;;;;;;;;;;;;;2.13;76.81;97846.75;4414067;32;33225;-96
2023/12/23 12:45:51;;;;;;;;;;;;;;;2.24;76.23;97854.69;4409326;32;33058;-96
2023/12/23 12:48:19;;;;;;;;;;;;;;;2.82;74.01;97867.13;4417183;32;34786;-96
2023/12/23 12:51:07;;;;;;;;;;;;;;;2.90;73.53;97875.84;4419054;32;34012;-95
2023/12/23 12:53:56;;;;;;;;;;;;;;;2.99;73.02;97872.59;4417380;32;32594;-96
2023/12/23 12:56:45;;;;;;;;;;;;;;;3.29;72.43;97872.38;4421480;32;34360;-96
2023/12/23 12:59:26;;;;;;;;;;;;;;;3.26;72.14;97869.78;4418442;32;34915;-95
2023/12/23 13:02:15;;;;;;;;;;;;;;;3.31;71.77;97873.28;4425044;32;32551;-96
2023/12/23 13:05:03;;;;;;;;;;;;;;;3.21;72.54;97876.50;4415312;32;32988;-96
2023/12/23 13:07:52;;;;;;;;;;;;;;;3.40;71.79;97878.59;4401625;32;33960;-96
2023/12/23 13:10:40;;;;;;;;;;;;;;;3.15;72.86;97876.38;4416077;32;34505;-96
2023/12/23 13:13:08;;;;;;;;;;;;;;;3.46;71.56;97866.75;4412027;32;32573;-95
2023/12/23 13:15:37;;;;;;;;;;;;;;;3.10;72.68;97872.84;4396421;32;33251;-96
2023/12/23 13:18:25;;;;;;;;;;;;;;;3.47;71.50;97865.91;4419648;32;34798;-96
2023/12/23 13:21:13;;;;;;;;;;;;;;;3.72;70.59;97865.56;4406859;32;33236;-92
2023/12/23 13:23:42;;;;;;;;;;;;;;;2.92;72.68;97863.94;4411741;32;34448;-94
2023/12/23 13:26:29;;;;;;;;;;;;;;;3.40;71.94;97864.91;4415013;32;31348;-95
2023/12/23 13:29:18;;;;;;;;;;;;;;;3.80;70.65;97864.00;4416256;32;34875;-96
2023/12/23 13:32:07;;;;;;;;;;;;;;;3.52;71.28;97862.59;4430620;32;34098;-96
2023/12/23 13:35:00;;;;;;;;;;;;;;;3.50;71.14;97858.28;4405002;32;32836;-96
2023/12/23 13:37:47;;;;;;;;;;;;;;;3.42;71.74;97864.12;4417039;32;32765;-96
2023/12/23 13:40:35;;;;;;;;;;;;;;;3.53;71.30;97866.03;4418326;32;33839;-96
2023/12/23 13:43:02;;;;;;;;;;;;;;;3.47;71.43;97866.78;4403208;32;33141;-92
2023/12/23 13:45:29;;;;;;;;;;;;;;;3.32;72.02;97864.78;4412910;32;33390;-95